createdAt,value
2022-09-30T00:02:07.989Z,100337.16
2022-09-30T00:04:38.231Z,100331.13
2022-09-30T00:07:08.363Z,100338.06
2022-09-30T00:09:38.643Z,100329.34
2022-09-30T00:12:08.733Z,100323.31
2022-09-30T00:14:39.728Z,100325.91
2022-09-30T00:17:09.679Z,100321.75
2022-09-30T00:19:39.698Z,100333.47
2022-09-30T00:22:09.835Z,100334.41
2022-09-30T00:24:39.761Z,100333.75
2022-09-30T00:27:09.845Z,100333.88
2022-09-30T00:29:40.066Z,100341.59
2022-09-30T00:32:10.124Z,100347.69
2022-09-30T00:34:40.243Z,100346.22
2022-09-30T00:37:10.674Z,100338.53
2022-09-30T00:39:40.828Z,100343.19
2022-09-30T00:42:16.962Z,100339.38
2022-09-30T00:44:54.562Z,100333.94
2022-09-30T00:47:29.947Z,100333.00
2022-09-30T00:50:12.372Z,100323.41
2022-09-30T00:52:45.102Z,100321.09
2022-09-30T00:55:28.771Z,100326.59
2022-09-30T00:58:01.053Z,100323.22
2022-09-30T01:00:31.857Z,100324.19
2022-09-30T01:03:02.920Z,100318.94
2022-09-30T01:05:36.163Z,100323.41
2022-09-30T01:08:10.417Z,100325.94
2022-09-30T01:10:41.002Z,100323.38
2022-09-30T01:13:12.588Z,100330.75
2022-09-30T01:16:08.192Z,100331.47
2022-09-30T01:18:55.137Z,100335.06
2022-09-30T01:21:42.098Z,100344.69
2022-09-30T01:24:24.306Z,100343.16
2022-09-30T01:27:33.121Z,100340.34
2022-09-30T01:30:12.041Z,100343.50
2022-09-30T01:32:50.574Z,100341.72
2022-09-30T01:35:32.101Z,100343.50
2022-09-30T01:38:03.180Z,100337.97
2022-09-30T01:40:49.892Z,100334.59
2022-09-30T01:43:42.659Z,100343.34
2022-09-30T01:46:22.160Z,100336.19
2022-09-30T01:48:58.427Z,100337.94
2022-09-30T01:51:42.096Z,100336.16
2022-09-30T01:54:18.450Z,100339.75
2022-09-30T01:56:55.850Z,100337.41
2022-09-30T01:59:34.039Z,100342.91
2022-09-30T02:02:09.584Z,100343.56
2022-09-30T02:04:47.678Z,100344.72
2022-09-30T02:07:34.591Z,100336.50
2022-09-30T02:10:18.872Z,100333.09
2022-09-30T02:12:58.939Z,100336.16
2022-09-30T02:15:40.339Z,100328.72
2022-09-30T02:18:26.882Z,100335.00
2022-09-30T02:21:03.931Z,100331.38
2022-09-30T02:23:44.570Z,100334.97
2022-09-30T02:26:26.844Z,100328.84
2022-09-30T02:29:10.429Z,100328.94
2022-09-30T02:31:41.972Z,100328.75
2022-09-30T02:34:26.565Z,100326.69
2022-09-30T02:37:21.601Z,100316.00
2022-09-30T02:40:07.154Z,100322.56
2022-09-30T02:42:37.547Z,100321.25
2022-09-30T02:45:17.604Z,100329.41
2022-09-30T02:48:06.458Z,100326.22
2022-09-30T02:50:48.917Z,100329.00
2022-09-30T02:53:22.230Z,100335.88
2022-09-30T02:56:04.407Z,100331.88
2022-09-30T02:58:38.438Z,100324.09
2022-09-30T03:01:12.309Z,100316.09
2022-09-30T03:04:01.893Z,100325.06
2022-09-30T03:06:31.992Z,100324.53
2022-09-30T03:09:02.631Z,100323.00
2022-09-30T03:11:34.202Z,100320.63
2022-09-30T03:14:25.705Z,100317.16
2022-09-30T03:16:55.809Z,100316.41
2022-09-30T03:19:52.958Z,100317.53
2022-09-30T03:23:31.347Z,100309.25
2022-09-30T03:26:18.397Z,100316.63
2022-09-30T03:29:05.599Z,100315.03
2022-09-30T03:31:55.125Z,100307.50
2022-09-30T03:34:40.576Z,100319.69
2022-09-30T03:37:33.130Z,100304.59
2022-09-30T03:40:28.088Z,100305.78
2022-09-30T03:43:27.153Z,100296.09
2022-09-30T03:46:24.187Z,100298.56
2022-09-30T03:49:01.028Z,100299.91
2022-09-30T03:51:31.421Z,100302.13
2022-09-30T03:54:01.665Z,100289.16
2022-09-30T03:56:33.360Z,100298.38
2022-09-30T03:59:03.597Z,100287.09
2022-09-30T04:01:33.821Z,100287.88
2022-09-30T04:04:03.991Z,100294.19
2022-09-30T04:06:34.265Z,100284.47
2022-09-30T04:09:04.346Z,100281.28
2022-09-30T04:11:34.334Z,100278.31
2022-09-30T04:14:04.855Z,100282.13
2022-09-30T04:16:35.621Z,100272.69
2022-09-30T04:19:06.313Z,100273.84
2022-09-30T04:21:37.040Z,100269.78
2022-09-30T04:24:07.664Z,100264.44
2022-09-30T04:26:37.734Z,100261.47
2022-09-30T04:29:07.954Z,100266.38
2022-09-30T04:31:38.734Z,100262.31
2022-09-30T04:34:09.493Z,100266.41
2022-09-30T04:36:40.375Z,100260.47
2022-09-30T04:39:10.822Z,100263.75
2022-09-30T04:41:42.010Z,100246.22
2022-09-30T04:44:12.379Z,100237.59
2022-09-30T04:46:42.515Z,100241.91
2022-09-30T04:49:12.529Z,100236.81
2022-09-30T04:51:45.352Z,100228.72
2022-09-30T04:54:17.810Z,100226.31
2022-09-30T04:56:47.889Z,100225.81
2022-09-30T04:59:18.677Z,100214.22
2022-09-30T05:01:48.995Z,100213.72
2022-09-30T05:04:19.617Z,100213.72
2022-09-30T05:06:51.013Z,100215.09
2022-09-30T05:09:22.243Z,100213.47
2022-09-30T05:11:53.288Z,100211.06
2022-09-30T05:14:24.291Z,100200.81
2022-09-30T05:16:54.671Z,100204.63
2022-09-30T05:19:24.244Z,100203.00
2022-09-30T05:21:54.924Z,100202.47
2022-09-30T05:24:25.768Z,100196.56
2022-09-30T05:26:55.809Z,100200.88
2022-09-30T05:29:26.006Z,100199.53
2022-09-30T05:31:56.633Z,100202.00
2022-09-30T05:34:27.005Z,100204.16
2022-09-30T05:36:59.233Z,100201.75
2022-09-30T05:39:29.564Z,100195.00
2022-09-30T05:42:02.842Z,100193.13
2022-09-30T05:44:33.059Z,100191.81
2022-09-30T05:47:04.896Z,100198.00
2022-09-30T05:49:36.273Z,100195.84
2022-09-30T05:52:06.818Z,100191.78
2022-09-30T05:54:37.314Z,100200.19
2022-09-30T05:57:09.536Z,100196.16
2022-09-30T05:59:39.712Z,100190.22
2022-09-30T06:02:12.177Z,100187.53
2022-09-30T06:04:42.696Z,100188.06
2022-09-30T06:07:12.667Z,100186.44
2022-09-30T06:09:43.082Z,100180.75
2022-09-30T06:12:13.347Z,100183.75
2022-09-30T06:14:43.734Z,100186.72
2022-09-30T06:17:13.991Z,100178.34
2022-09-30T06:19:44.580Z,100178.88
2022-09-30T06:22:14.749Z,100172.94
2022-09-30T06:24:44.321Z,100168.06
2022-09-30T06:27:14.734Z,100171.84
2022-09-30T06:29:44.933Z,100165.09
2022-09-30T06:32:15.783Z,100155.59
2022-09-30T06:34:46.977Z,100156.47
2022-09-30T06:37:17.566Z,100157.53
2022-09-30T06:39:47.877Z,100156.16
2022-09-30T06:42:18.760Z,100172.97
2022-09-30T06:44:53.403Z,100158.88
2022-09-30T06:47:25.807Z,100145.88
2022-09-30T06:50:01.073Z,100150.22
2022-09-30T06:52:31.127Z,100142.63
2022-09-30T06:55:01.205Z,100144.00
2022-09-30T06:57:32.603Z,100142.09
2022-09-30T07:00:02.906Z,100146.44
2022-09-30T07:02:35.877Z,100156.69
2022-09-30T07:05:06.207Z,100145.31
2022-09-30T07:07:37.306Z,100149.41
2022-09-30T07:10:08.948Z,100137.47
2022-09-30T07:12:40.006Z,100138.28
2022-09-30T07:15:13.738Z,100139.63
2022-09-30T07:17:45.454Z,100134.22
2022-09-30T07:20:16.232Z,100133.94
2022-09-30T07:22:47.769Z,100139.91
2022-09-30T07:25:18.859Z,100136.13
2022-09-30T07:27:49.455Z,100129.59
2022-09-30T07:30:26.802Z,100134.47
2022-09-30T07:32:57.273Z,100119.03
2022-09-30T07:35:28.166Z,100117.13
2022-09-30T07:37:58.184Z,100113.88
2022-09-30T07:40:32.880Z,100112.25
2022-09-30T07:43:03.065Z,100125.81
2022-09-30T07:45:33.159Z,100125.81
2022-09-30T07:48:03.507Z,100123.09
2022-09-30T07:50:33.633Z,100122.00
2022-09-30T07:53:03.580Z,100119.28
2022-09-30T07:55:33.545Z,100114.97
2022-09-30T07:58:03.569Z,100114.13
2022-09-30T08:00:48.969Z,100107.66
2022-09-30T08:03:19.722Z,100105.47
2022-09-30T08:05:49.989Z,100099.25
2022-09-30T08:08:20.973Z,100101.41
2022-09-30T08:10:50.964Z,100098.97
2022-09-30T08:13:21.516Z,100096.53
2022-09-30T08:15:51.561Z,100098.72
2022-09-30T08:18:22.428Z,100098.19
2022-09-30T08:20:52.642Z,100099.00
2022-09-30T08:23:22.809Z,100103.03
2022-09-30T08:25:52.788Z,100105.22
2022-09-30T08:28:23.045Z,100104.41
2022-09-30T08:30:53.186Z,100111.19
2022-09-30T08:33:23.226Z,100101.72
2022-09-30T08:35:53.438Z,100108.50
2022-09-30T08:38:23.649Z,100104.44
2022-09-30T08:41:22.425Z,100112.28
2022-09-30T08:44:04.441Z,100118.78
2022-09-30T08:46:58.275Z,100107.97
2022-09-30T08:49:28.535Z,100118.81
2022-09-30T08:52:02.420Z,100106.84
2022-09-30T08:54:40.031Z,100110.13
2022-09-30T08:57:14.591Z,100119.84
2022-09-30T09:00:03.162Z,100113.63
2022-09-30T09:02:42.168Z,100122.56
2022-09-30T09:05:21.968Z,100128.50
2022-09-30T09:08:06.839Z,100129.06
2022-09-30T09:11:12.577Z,100134.75
2022-09-30T09:14:02.164Z,100143.66
2022-09-30T09:16:45.131Z,100140.13
2022-09-30T09:19:19.306Z,100134.44
2022-09-30T09:21:55.936Z,100145.28
2022-09-30T09:24:41.094Z,100141.75
2022-09-30T09:27:32.952Z,100149.31
2022-09-30T09:30:09.461Z,100150.34
2022-09-30T09:32:40.071Z,100148.72
2022-09-30T09:35:36.075Z,100148.94
2022-09-30T09:38:31.222Z,100155.13
2022-09-30T09:41:35.174Z,100158.13
2022-09-30T09:44:14.506Z,100156.47
2022-09-30T09:46:53.290Z,100161.03
2022-09-30T09:49:25.371Z,100158.56
2022-09-30T09:52:08.424Z,100163.97
2022-09-30T09:54:54.212Z,100169.09
2022-09-30T09:57:33.588Z,100170.97
2022-09-30T10:00:31.222Z,100173.63
2022-09-30T10:03:29.390Z,100173.06
2022-09-30T10:06:05.637Z,100175.72
2022-09-30T10:08:41.411Z,100174.06
2022-09-30T10:11:27.213Z,100178.84
2022-09-30T10:14:02.477Z,100178.25
2022-09-30T10:16:39.531Z,100178.22
2022-09-30T10:19:29.085Z,100181.44
2022-09-30T10:22:11.194Z,100181.38
2022-09-30T10:24:42.088Z,100179.69
2022-09-30T10:27:33.281Z,100191.31
2022-09-30T10:30:03.652Z,100197.16
2022-09-30T10:32:34.687Z,100188.22
2022-09-30T10:35:23.436Z,100189.53
2022-09-30T10:37:56.589Z,100193.81
2022-09-30T10:40:31.074Z,100197.25
2022-09-30T10:43:01.358Z,100202.38
2022-09-30T10:45:39.525Z,100206.63
2022-09-30T10:48:20.851Z,100204.66
2022-09-30T10:50:58.393Z,100197.09
2022-09-30T10:53:36.092Z,100197.84
2022-09-30T10:56:09.512Z,100212.09
2022-09-30T10:58:51.395Z,100212.59
2022-09-30T11:02:00.018Z,100213.13
2022-09-30T11:04:36.858Z,100210.94
2022-09-30T11:07:28.540Z,100217.38
2022-09-30T11:10:11.541Z,100208.19
2022-09-30T11:13:07.389Z,100202.72
2022-09-30T11:16:21.925Z,100201.34
2022-09-30T11:19:13.225Z,100207.50
2022-09-30T11:21:55.341Z,100222.00
2022-09-30T11:24:48.726Z,100218.16
2022-09-30T11:27:30.867Z,100227.59
2022-09-30T11:30:23.488Z,100223.72
2022-09-30T11:33:11.573Z,100228.81
2022-09-30T11:36:20.706Z,100236.03
2022-09-30T11:39:45.517Z,100235.91
2022-09-30T11:42:21.711Z,100229.66
2022-09-30T11:45:18.136Z,100232.59
2022-09-30T11:48:16.913Z,100229.56
2022-09-30T11:50:58.805Z,100238.16
2022-09-30T11:53:34.672Z,100237.59
2022-09-30T11:56:18.090Z,100237.03
2022-09-30T11:58:54.741Z,100239.16
2022-09-30T12:01:46.980Z,100239.66
2022-09-30T12:04:33.020Z,100239.56
2022-09-30T12:07:08.301Z,100239.81
2022-09-30T12:10:05.971Z,100240.34
2022-09-30T12:12:36.627Z,100242.69
2022-09-30T12:15:09.400Z,100252.09
2022-09-30T12:17:52.573Z,100257.94
2022-09-30T12:20:54.513Z,100263.59
2022-09-30T12:23:37.925Z,100268.91
2022-09-30T12:26:09.445Z,100275.84
2022-09-30T12:29:06.015Z,100278.19
2022-09-30T12:31:59.467Z,100260.91
2022-09-30T12:35:06.573Z,100271.13
2022-09-30T12:38:01.076Z,100276.75
2022-09-30T12:41:05.068Z,100289.31
2022-09-30T12:43:44.180Z,100282.72
2022-09-30T12:46:37.490Z,100291.28
2022-09-30T12:49:17.028Z,100296.09
2022-09-30T12:51:51.577Z,100302.81
2022-09-30T12:54:32.828Z,100308.66
2022-09-30T12:57:07.539Z,100308.31
2022-09-30T12:59:40.902Z,100311.25
2022-09-30T13:02:34.326Z,100312.34
2022-09-30T13:05:28.746Z,100321.69
2022-09-30T13:08:07.849Z,100326.75
2022-09-30T13:10:40.542Z,100317.53
2022-09-30T13:13:13.541Z,100318.00
2022-09-30T13:15:47.801Z,100330.88
2022-09-30T13:18:25.229Z,100327.00
2022-09-30T13:21:08.073Z,100332.91
2022-09-30T13:23:42.618Z,100342.00
2022-09-30T13:26:46.494Z,100335.81
2022-09-30T13:29:19.399Z,100338.75
2022-09-30T13:31:52.437Z,100338.19
2022-09-30T13:34:35.039Z,100344.59
2022-09-30T13:37:29.087Z,100344.59
2022-09-30T13:40:01.864Z,100340.53
2022-09-30T13:42:43.634Z,100347.19
2022-09-30T13:45:26.176Z,100351.75
2022-09-30T13:48:12.933Z,100345.00
2022-09-30T13:50:51.906Z,100344.38
2022-09-30T13:53:35.050Z,100341.34
2022-09-30T13:56:19.668Z,100350.50
2022-09-30T13:58:54.238Z,100345.59
2022-09-30T14:01:40.290Z,100352.00
2022-09-30T14:04:34.949Z,100356.81
2022-09-30T14:07:27.629Z,100352.50
2022-09-30T14:10:38.365Z,100350.63
2022-09-30T14:13:30.511Z,100348.16
2022-09-30T14:16:14.614Z,100364.09
2022-09-30T14:18:55.392Z,100361.63
2022-09-30T14:21:54.026Z,100357.06
2022-09-30T14:24:36.524Z,100360.09
2022-09-30T14:27:25.786Z,100359.28
2022-09-30T14:30:12.065Z,100350.41
2022-09-30T14:32:57.300Z,100353.31
2022-09-30T14:35:33.812Z,100354.59
2022-09-30T14:38:06.829Z,100371.34
2022-09-30T14:40:42.805Z,100372.97
2022-09-30T14:43:22.870Z,100369.47
2022-09-30T14:45:59.283Z,100373.53
2022-09-30T14:48:34.678Z,100384.06
2022-09-30T14:51:11.036Z,100373.88
2022-09-30T14:54:07.628Z,100379.63
2022-09-30T14:56:40.591Z,100382.06
2022-09-30T14:59:29.617Z,100374.59
2022-09-30T15:02:22.500Z,100377.28
2022-09-30T15:05:01.014Z,100383.72
2022-09-30T15:07:32.949Z,100376.69
2022-09-30T15:10:04.417Z,100381.84
2022-09-30T15:12:39.537Z,100382.66
2022-09-30T15:15:43.666Z,100380.78
2022-09-30T15:18:27.883Z,100385.34
2022-09-30T15:21:02.057Z,100388.06
2022-09-30T15:23:35.507Z,100394.00
2022-09-30T15:26:08.399Z,100387.78
2022-09-30T15:28:39.425Z,100380.56
2022-09-30T15:31:26.867Z,100373.06
2022-09-30T15:34:27.410Z,100378.44
2022-09-30T15:37:08.238Z,100386.50
2022-09-30T15:40:05.641Z,100382.19
2022-09-30T15:42:38.873Z,100371.91
2022-09-30T15:45:35.377Z,100372.94
2022-09-30T15:48:22.545Z,100372.94
2022-09-30T15:50:55.526Z,100370.50
2022-09-30T15:53:39.242Z,100375.63
2022-09-30T15:56:32.208Z,100375.63
2022-09-30T15:59:04.153Z,100380.22
2022-09-30T16:01:52.920Z,100376.69
2022-09-30T16:04:25.910Z,100381.25
2022-09-30T16:07:02.103Z,100384.75
2022-09-30T16:09:34.813Z,100383.72
2022-09-30T16:12:17.628Z,100391.56
2022-09-30T16:14:57.488Z,100391.78
2022-09-30T16:17:29.751Z,100388.28
2022-09-30T16:20:03.037Z,100392.81
2022-09-30T16:22:42.745Z,100395.28
2022-09-30T16:25:35.023Z,100377.53
2022-09-30T16:28:14.223Z,100390.97
2022-09-30T16:30:49.344Z,100389.56
2022-09-30T16:33:19.877Z,100394.94
2022-09-30T16:35:50.600Z,100392.47
2022-09-30T16:38:21.537Z,100409.47
2022-09-30T16:40:52.424Z,100408.84
2022-09-30T16:43:24.219Z,100407.47
2022-09-30T16:45:54.886Z,100410.41
2022-09-30T16:48:26.876Z,100417.88
2022-09-30T16:51:07.317Z,100421.63
2022-09-30T16:53:38.714Z,100434.50
2022-09-30T16:56:16.376Z,100429.56
2022-09-30T16:58:47.483Z,100427.56
2022-09-30T17:01:26.177Z,100435.88
2022-09-30T17:03:58.201Z,100440.66
2022-09-30T17:06:33.177Z,100446.28
2022-09-30T17:09:04.943Z,100445.13
2022-09-30T17:11:37.134Z,100436.69
2022-09-30T17:14:07.891Z,100444.78
2022-09-30T17:16:39.679Z,100438.78
2022-09-30T17:19:10.561Z,100431.78
2022-09-30T17:21:42.813Z,100437.38
2022-09-30T17:24:13.134Z,100439.50
2022-09-30T17:26:44.618Z,100445.09
2022-09-30T17:29:31.279Z,100446.13
2022-09-30T17:32:02.447Z,100446.38
2022-09-30T17:34:32.749Z,100448.25
2022-09-30T17:37:02.880Z,100447.44
2022-09-30T17:39:32.906Z,100446.63
2022-09-30T17:42:40.983Z,100455.72
2022-09-30T17:45:11.801Z,100454.69
2022-09-30T17:47:42.722Z,100446.63
2022-09-30T17:50:14.453Z,100454.69
2022-09-30T17:52:44.727Z,100450.34
2022-09-30T17:55:14.755Z,100459.22
2022-09-30T17:57:44.845Z,100469.19
2022-09-30T18:00:15.434Z,100456.78
2022-09-30T18:02:46.080Z,100460.28
2022-09-30T18:05:16.940Z,100457.84
2022-09-30T18:07:48.533Z,100461.56
2022-09-30T18:10:18.836Z,100458.28
2022-09-30T18:12:53.152Z,100459.31
2022-09-30T18:15:24.899Z,100447.19
2022-09-30T18:17:55.516Z,100452.78
2022-09-30T18:20:26.075Z,100466.47
2022-09-30T18:22:56.244Z,100467.03
2022-09-30T18:25:26.451Z,100471.59
2022-09-30T18:28:00.119Z,100466.22
2022-09-30T18:30:30.810Z,100465.88
2022-09-30T18:33:01.039Z,100468.78
2022-09-30T18:35:32.861Z,100458.50
2022-09-30T18:38:04.077Z,100462.59
2022-09-30T18:40:35.625Z,100453.72
2022-09-30T18:43:06.844Z,100448.56
2022-09-30T18:45:39.580Z,100447.72
2022-09-30T18:48:11.187Z,100447.72
2022-09-30T18:50:41.988Z,100449.84
2022-09-30T18:53:14.561Z,100451.72
2022-09-30T18:55:45.539Z,100447.38
2022-09-30T18:58:20.072Z,100442.00
2022-09-30T19:00:50.876Z,100447.63
2022-09-30T19:03:21.032Z,100450.56
2022-09-30T19:05:51.544Z,100455.31
2022-09-30T19:08:21.565Z,100452.88
2022-09-30T19:10:53.166Z,100453.34
2022-09-30T19:13:29.835Z,100462.44
2022-09-30T19:16:06.723Z,100460.81
2022-09-30T19:18:38.597Z,100455.88
2022-09-30T19:21:14.815Z,100458.00
2022-09-30T19:23:45.347Z,100459.03
2022-09-30T19:26:16.926Z,100463.81
2022-09-30T19:28:47.200Z,100458.88
2022-09-30T19:31:19.037Z,100451.06
2022-09-30T19:33:56.594Z,100451.06
2022-09-30T19:36:28.573Z,100444.28
2022-09-30T19:39:11.581Z,100448.84
2022-09-30T19:41:43.155Z,100446.81
2022-09-30T19:44:15.177Z,100444.34
2022-09-30T19:46:46.539Z,100437.09
2022-09-30T19:49:17.132Z,100436.50
2022-09-30T19:51:47.620Z,100449.13
2022-09-30T19:54:18.004Z,100433.22
2022-09-30T19:56:48.706Z,100439.63
2022-09-30T19:59:19.345Z,100447.09
2022-09-30T20:01:49.833Z,100447.59
2022-09-30T20:04:20.908Z,100457.25
2022-09-30T20:06:52.178Z,100456.69
2022-09-30T20:09:21.750Z,100455.88
2022-09-30T20:11:51.776Z,100460.66
2022-09-30T20:14:40.267Z,100467.06
2022-09-30T20:17:11.629Z,100467.88
2022-09-30T20:19:41.536Z,100460.88
2022-09-30T20:22:11.692Z,100464.59
2022-09-30T20:24:41.804Z,100464.59
2022-09-30T20:27:13.594Z,100478.25
2022-09-30T20:29:43.570Z,100487.13
2022-09-30T20:32:13.546Z,100488.19
2022-09-30T20:34:43.929Z,100481.63
2022-09-30T20:37:14.082Z,100482.88
2022-09-30T20:39:44.023Z,100472.59
2022-09-30T20:42:14.102Z,100471.41
2022-09-30T20:44:47.380Z,100472.06
2022-09-30T20:47:19.000Z,100460.97
2022-09-30T20:49:49.149Z,100444.28
2022-09-30T20:52:19.340Z,100441.00
2022-09-30T20:54:49.398Z,100443.09
2022-09-30T20:57:19.475Z,100442.28
2022-09-30T20:59:49.491Z,100453.00
2022-09-30T21:02:19.652Z,100456.72
2022-09-30T21:04:52.525Z,100462.09
2022-09-30T21:07:23.100Z,100471.19
2022-09-30T21:09:53.377Z,100471.19
2022-09-30T21:12:23.575Z,100465.44
2022-09-30T21:14:53.539Z,100464.63
2022-09-30T21:17:22.936Z,100459.50
2022-09-30T21:19:52.951Z,100460.19
2022-09-30T21:22:23.134Z,100460.41
2022-09-30T21:24:53.215Z,100467.59
2022-09-30T21:27:23.534Z,100482.69
2022-09-30T21:29:53.699Z,100493.03
2022-09-30T21:32:23.927Z,100486.03
2022-09-30T21:34:54.508Z,100491.84
2022-09-30T21:37:24.918Z,100494.16
2022-09-30T21:39:55.064Z,100487.59
2022-09-30T21:42:25.390Z,100506.59
2022-09-30T21:44:55.447Z,100503.91
2022-09-30T21:47:25.397Z,100497.13
2022-09-30T21:49:55.418Z,100497.94
2022-09-30T21:52:28.563Z,100500.63
2022-09-30T21:55:01.298Z,100503.09
2022-09-30T21:57:31.553Z,100497.72
2022-09-30T22:00:01.658Z,100500.41
2022-09-30T22:02:31.595Z,100508.44
2022-09-30T22:05:01.655Z,100506.81
2022-09-30T22:07:31.837Z,100509.47
2022-09-30T22:10:02.022Z,100507.84
2022-09-30T22:12:34.430Z,100507.84
2022-09-30T22:15:04.855Z,100507.06
2022-09-30T22:17:34.827Z,100519.59
2022-09-30T22:20:04.879Z,100525.84
2022-09-30T22:22:35.931Z,100530.94
2022-09-30T22:25:06.586Z,100530.94
2022-09-30T22:27:36.931Z,100526.44
2022-09-30T22:30:08.396Z,100531.56
2022-09-30T22:32:39.070Z,100528.66
2022-09-30T22:35:27.550Z,100535.88
2022-09-30T22:38:16.205Z,100549.91
2022-09-30T22:40:47.029Z,100555.88
2022-09-30T22:43:18.190Z,100563.94
2022-09-30T22:45:49.161Z,100559.38
2022-09-30T22:48:19.793Z,100547.38
2022-09-30T22:50:50.138Z,100543.66
2022-09-30T22:53:20.659Z,100548.22
2022-09-30T22:55:50.752Z,100544.25
2022-09-30T22:58:22.268Z,100557.25
2022-09-30T23:01:00.443Z,100557.84
2022-09-30T23:03:30.918Z,100554.72
2022-09-30T23:06:06.810Z,100559.03
2022-09-30T23:08:43.928Z,100566.63
2022-09-30T23:11:20.601Z,100560.84
2022-09-30T23:13:49.982Z,100571.13
2022-09-30T23:16:20.602Z,100569.84
2022-09-30T23:18:50.758Z,100572.31
2022-09-30T23:21:21.880Z,100578.06
2022-09-30T23:23:52.525Z,100580.53
2022-09-30T23:26:28.686Z,100589.78
2022-09-30T23:29:01.844Z,100590.38
2022-09-30T23:31:33.595Z,100595.31
2022-09-30T23:34:05.462Z,100600.44
2022-09-30T23:36:36.937Z,100604.53
2022-09-30T23:39:13.795Z,100615.91
2022-09-30T23:41:46.510Z,100608.44
2022-09-30T23:44:20.535Z,100598.50
2022-09-30T23:47:09.093Z,100609.84
2022-09-30T23:49:40.371Z,100609.41
2022-09-30T23:52:13.394Z,100617.25
2022-09-30T23:54:44.862Z,100618.66
2022-09-30T23:57:15.100Z,100621.34
2022-09-30T23:59:45.739Z,100636.22
